Rankin Inlet, Canada
Current Conditions -  °F | °C
As of 9:00 PM on Monday 22 Dec 2014 (Local Time) from CYRT Reporting Station
Broken Clouds Broken Clouds  
Wind Chill: -17°   Ceiling: 25000
Heat Index:   Visibility: 15mi
Dew Point: -4°   Wind: 10mph
Humidity: 85%   Direction: 350°N
Pressure: 30.16"   Gusts: NA
Location:  62.81°N, 92.08°W
Report Text: CYRT 230300Z 35009KT 15SM SCT030 BKN250 M18/M20 A3016 RMK SC4CI3 SLP217
Loading
Personal Weather Stations






























Interactive Weather Map New forecast layout! Learn more

10-Day Weather Forecast

Advertisements
Track Severe Weather on mobile